createdAt,value
2018-03-07T00:00:58.821Z,220.63
2018-03-07T00:03:06.319Z,207.87
2018-03-07T00:05:13.898Z,207.67
2018-03-07T00:07:21.228Z,198.97
2018-03-07T00:09:29.522Z,201.07
2018-03-07T00:11:36.743Z,187.60
2018-03-07T00:13:43.967Z,182.40
2018-03-07T00:15:51.683Z,172.83
2018-03-07T00:17:58.065Z,179.20
2018-03-07T00:20:06.013Z,171.37
2018-03-07T00:22:16.969Z,167.40
2018-03-07T00:24:25.539Z,163.03
2018-03-07T00:26:32.974Z,157.03
2018-03-07T00:28:40.188Z,150.50
2018-03-07T00:30:47.636Z,151.50
2018-03-07T00:32:56.600Z,152.37
2018-03-07T00:35:03.885Z,147.20
2018-03-07T00:37:11.785Z,146.30
2018-03-07T00:39:20.352Z,139.20
2018-03-07T00:41:27.907Z,134.77
2018-03-07T00:43:36.658Z,140.90
2018-03-07T00:45:43.983Z,138.00
2018-03-07T00:47:51.664Z,133.30
2018-03-07T00:49:58.840Z,131.70
2018-03-07T00:52:06.682Z,128.20
2018-03-07T00:54:15.450Z,131.40
2018-03-07T00:58:40.968Z,125.13
2018-03-07T01:00:51.287Z,121.30
2018-03-07T01:03:00.176Z,119.40
2018-03-07T01:05:08.797Z,118.40
2018-03-07T01:07:19.300Z,117.67
2018-03-07T01:09:28.560Z,116.27
2018-03-07T01:11:38.324Z,108.97
2018-03-07T01:13:54.183Z,109.00
2018-03-07T01:16:04.155Z,116.47
2018-03-07T01:18:11.170Z,113.43
2018-03-07T01:20:18.589Z,110.40
2018-03-07T01:22:26.484Z,104.93
2018-03-07T01:24:37.915Z,107.47
2018-03-07T01:26:54.583Z,110.90
2018-03-07T01:29:06.871Z,114.80
2018-03-07T01:31:15.717Z,107.17
2018-03-07T01:33:23.432Z,109.17
2018-03-07T01:35:32.088Z,104.70
2018-03-07T01:37:39.576Z,104.93
2018-03-07T01:39:53.193Z,109.87
2018-03-07T01:42:00.287Z,107.23
2018-03-07T01:44:07.499Z,103.80
2018-03-07T01:46:14.674Z,104.30
2018-03-07T01:48:22.266Z,101.77
2018-03-07T01:50:33.707Z,108.37
2018-03-07T01:52:42.110Z,97.70
2018-03-07T01:54:53.469Z,99.93
2018-03-07T01:57:05.617Z,103.27
2018-03-07T01:59:13.784Z,108.07
2018-03-07T02:01:21.689Z,101.00
2018-03-07T02:03:28.598Z,96.90
2018-03-07T02:05:34.676Z,101.60
2018-03-07T02:07:39.954Z,96.30
2018-03-07T02:09:45.780Z,94.83
2018-03-07T02:11:52.020Z,99.73
2018-03-07T02:13:57.680Z,95.33
2018-03-07T02:16:03.508Z,95.57
2018-03-07T02:18:09.631Z,102.67
2018-03-07T02:20:15.592Z,96.07
2018-03-07T02:22:21.360Z,97.27
2018-03-07T02:24:26.597Z,92.20
2018-03-07T02:26:32.885Z,93.80
2018-03-07T02:28:38.928Z,100.90
2018-03-07T02:30:45.666Z,102.80
2018-03-07T02:32:51.657Z,97.43
2018-03-07T02:34:57.518Z,97.47
2018-03-07T02:37:03.057Z,100.27
2018-03-07T02:39:09.085Z,94.87
2018-03-07T02:41:15.260Z,101.57
2018-03-07T02:43:21.734Z,99.30
2018-03-07T02:45:27.041Z,93.33
2018-03-07T02:47:33.443Z,91.13
2018-03-07T02:49:39.745Z,100.77
2018-03-07T02:51:45.583Z,100.10
2018-03-07T02:53:50.866Z,92.63
2018-03-07T02:55:56.325Z,90.87
2018-03-07T02:58:02.095Z,97.10
2018-03-07T03:00:07.920Z,93.53
2018-03-07T03:02:14.051Z,92.33
2018-03-07T03:04:20.056Z,97.00
2018-03-07T03:06:25.954Z,95.57
2018-03-07T03:08:31.381Z,89.00
2018-03-07T03:10:37.232Z,98.20
2018-03-07T03:12:42.928Z,90.17
2018-03-07T03:14:48.982Z,90.03
2018-03-07T03:16:54.404Z,91.57
2018-03-07T03:19:00.120Z,87.37
2018-03-07T03:21:05.827Z,94.80
2018-03-07T03:23:11.110Z,97.77
2018-03-07T03:25:16.879Z,93.17
2018-03-07T03:27:22.876Z,92.23
2018-03-07T03:29:29.291Z,97.47
2018-03-07T03:31:35.009Z,93.40
2018-03-07T03:33:40.326Z,89.40
2018-03-07T03:35:45.665Z,94.77
2018-03-07T03:38:03.302Z,90.37
2018-03-07T03:40:09.508Z,97.40
2018-03-07T03:42:14.810Z,93.67
2018-03-07T03:44:20.579Z,102.00
2018-03-07T03:46:26.447Z,93.07
2018-03-07T03:48:32.324Z,89.67
2018-03-07T03:50:38.027Z,91.13
2018-03-07T03:52:44.327Z,87.70
2018-03-07T03:54:50.307Z,93.73
2018-03-07T03:56:56.673Z,93.57
2018-03-07T03:59:02.379Z,93.03
2018-03-07T04:01:08.751Z,97.17
2018-03-07T04:03:14.616Z,89.00
2018-03-07T04:05:20.796Z,87.40
2018-03-07T04:07:26.688Z,89.83
2018-03-07T04:09:32.771Z,96.53
2018-03-07T04:11:38.959Z,89.40
2018-03-07T04:13:44.606Z,90.07
2018-03-07T04:15:51.464Z,88.03
2018-03-07T04:17:57.267Z,90.97
2018-03-07T04:20:03.115Z,93.13
2018-03-07T04:22:10.303Z,86.33
2018-03-07T04:24:16.109Z,93.10
2018-03-07T04:26:21.864Z,95.63
2018-03-07T04:28:27.382Z,89.67
2018-03-07T04:30:33.674Z,93.60
2018-03-07T04:32:38.964Z,87.30
2018-03-07T04:34:44.693Z,91.30
2018-03-07T04:36:50.517Z,89.67
2018-03-07T04:38:56.259Z,92.23
2018-03-07T04:41:02.971Z,94.37
2018-03-07T04:43:08.734Z,89.60
2018-03-07T04:45:14.492Z,92.27
2018-03-07T04:47:19.853Z,88.23
2018-03-07T04:49:25.717Z,91.30
2018-03-07T04:51:31.503Z,92.67
2018-03-07T04:53:37.724Z,94.47
2018-03-07T04:55:43.634Z,93.50
2018-03-07T04:57:48.917Z,100.10
2018-03-07T04:59:54.262Z,94.00
2018-03-07T05:01:59.929Z,99.60
2018-03-07T05:04:06.330Z,91.40
2018-03-07T05:06:12.515Z,101.60
2018-03-07T05:08:18.442Z,93.87
2018-03-07T05:10:26.785Z,93.30
2018-03-07T05:12:32.364Z,90.93
2018-03-07T05:14:38.419Z,93.33
2018-03-07T05:16:44.803Z,98.77
2018-03-07T05:18:51.616Z,96.20
2018-03-07T05:20:57.028Z,91.63
2018-03-07T05:23:02.730Z,98.53
2018-03-07T05:25:09.689Z,94.73
2018-03-07T05:27:15.285Z,106.00
2018-03-07T05:29:21.124Z,95.43
2018-03-07T05:31:27.060Z,102.87
2018-03-07T05:33:33.396Z,101.17
2018-03-07T05:35:39.464Z,97.00
2018-03-07T05:37:45.205Z,101.10
2018-03-07T05:39:51.033Z,100.30
2018-03-07T05:42:05.772Z,97.87
2018-03-07T05:44:11.537Z,102.17
2018-03-07T05:46:17.108Z,100.70
2018-03-07T05:48:22.423Z,97.03
2018-03-07T05:50:28.070Z,103.33
2018-03-07T05:52:33.564Z,107.60
2018-03-07T05:54:39.350Z,100.80
2018-03-07T05:56:44.990Z,97.17
2018-03-07T05:58:51.660Z,96.17
2018-03-07T06:00:57.432Z,95.17
2018-03-07T06:03:33.173Z,99.57
2018-03-07T06:05:38.485Z,92.00
2018-03-07T06:07:43.827Z,97.37
2018-03-07T06:09:49.503Z,95.47
2018-03-07T06:11:54.992Z,103.63
2018-03-07T06:14:00.557Z,103.30
2018-03-07T06:16:09.856Z,100.83
2018-03-07T06:18:15.853Z,98.70
2018-03-07T06:20:22.085Z,102.73
2018-03-07T06:22:27.679Z,98.40
2018-03-07T06:24:32.982Z,97.63
2018-03-07T06:26:39.448Z,102.90
2018-03-07T06:28:45.687Z,91.93
2018-03-07T06:30:52.153Z,95.17
2018-03-07T06:32:57.700Z,568.07
2018-03-07T06:35:04.220Z,456.03
2018-03-07T06:37:09.509Z,664.87
2018-03-07T06:39:15.327Z,456.73
2018-03-07T06:41:21.442Z,459.93
2018-03-07T06:43:27.293Z,638.63
2018-03-07T06:45:33.188Z,811.17
2018-03-07T06:47:38.810Z,623.73
2018-03-07T06:49:44.099Z,502.10
2018-03-07T06:51:49.851Z,483.07
2018-03-07T06:53:55.454Z,577.70
2018-03-07T06:56:00.841Z,674.47
2018-03-07T06:58:06.761Z,644.67
2018-03-07T07:00:17.312Z,689.17
2018-03-07T07:02:23.271Z,699.33
2018-03-07T07:04:28.609Z,751.23
2018-03-07T07:06:34.936Z,678.17
2018-03-07T07:08:40.301Z,648.80
2018-03-07T07:10:46.096Z,642.67
2018-03-07T07:12:52.140Z,735.20
2018-03-07T07:14:59.384Z,663.67
2018-03-07T07:17:05.220Z,777.30
2018-03-07T07:19:12.490Z,835.40
2018-03-07T07:21:18.397Z,906.23
2018-03-07T07:23:24.753Z,936.07
2018-03-07T07:25:31.055Z,699.17
2018-03-07T07:27:37.719Z,1204.77
2018-03-07T07:29:44.012Z,1999.90
2018-03-07T07:31:50.872Z,1404.70
2018-03-07T07:33:56.054Z,899.87
2018-03-07T07:36:01.365Z,645.40
2018-03-07T07:38:06.960Z,984.23
2018-03-07T07:40:13.956Z,1357.63
2018-03-07T07:42:19.696Z,719.97
2018-03-07T07:44:25.887Z,549.87
2018-03-07T07:46:32.334Z,1785.80
2018-03-07T07:48:38.449Z,1740.20
2018-03-07T07:50:44.788Z,1290.17
2018-03-07T07:52:50.982Z,1903.43
2018-03-07T07:54:57.246Z,1999.90
2018-03-07T07:57:03.592Z,859.53
2018-03-07T07:59:09.447Z,644.60
2018-03-07T08:01:14.756Z,521.60
2018-03-07T08:03:20.142Z,428.83
2018-03-07T08:05:29.983Z,361.50
2018-03-07T08:07:35.768Z,304.23
2018-03-07T08:09:41.664Z,271.40
2018-03-07T08:11:47.501Z,258.93
2018-03-07T08:13:53.962Z,247.63
2018-03-07T08:15:59.753Z,238.63
2018-03-07T08:18:05.867Z,420.73
2018-03-07T08:20:11.815Z,684.97
2018-03-07T08:22:18.149Z,623.33
2018-03-07T08:24:24.374Z,536.63
2018-03-07T08:26:29.655Z,477.67
2018-03-07T08:28:36.864Z,1949.20
2018-03-07T08:30:43.544Z,1864.00
2018-03-07T08:32:49.430Z,1685.87
2018-03-07T08:34:55.813Z,1999.90
2018-03-07T08:37:02.207Z,1999.90
2018-03-07T08:39:08.236Z,903.33
2018-03-07T08:41:13.558Z,1065.50
2018-03-07T08:43:19.196Z,937.30
2018-03-07T08:45:25.040Z,917.27
2018-03-07T08:47:30.305Z,721.77
2018-03-07T08:49:37.132Z,653.23
2018-03-07T08:51:42.392Z,581.57
2018-03-07T08:53:48.228Z,546.67
2018-03-07T08:55:54.432Z,529.87
2018-03-07T08:58:00.563Z,519.07
2018-03-07T09:00:06.334Z,506.63
2018-03-07T09:02:13.392Z,1258.43
2018-03-07T09:04:19.165Z,1281.23
2018-03-07T09:06:24.836Z,855.37
2018-03-07T09:08:30.544Z,682.57
2018-03-07T09:10:37.315Z,596.70
2018-03-07T09:12:42.698Z,573.87
2018-03-07T09:14:49.056Z,546.80
2018-03-07T09:16:55.366Z,543.50
2018-03-07T09:19:01.655Z,526.00
2018-03-07T09:21:08.084Z,524.00
2018-03-07T09:23:18.619Z,511.47
2018-03-07T09:25:23.871Z,495.50
2018-03-07T09:27:29.258Z,473.83
2018-03-07T09:29:35.313Z,464.80
2018-03-07T09:31:41.288Z,1168.60
2018-03-07T09:33:47.284Z,920.13
2018-03-07T09:35:53.509Z,923.20
2018-03-07T09:37:58.868Z,664.60
2018-03-07T09:40:05.756Z,560.30
2018-03-07T09:42:11.407Z,526.70
2018-03-07T09:44:17.770Z,504.47
2018-03-07T09:46:23.716Z,493.60
2018-03-07T09:48:29.944Z,484.93
2018-03-07T09:50:36.016Z,466.73
2018-03-07T09:52:41.315Z,454.20
2018-03-07T09:54:47.492Z,442.70
2018-03-07T09:56:52.802Z,416.77
2018-03-07T09:58:58.757Z,414.20
2018-03-07T10:01:05.749Z,1050.53
2018-03-07T10:03:11.255Z,751.13
2018-03-07T10:05:16.953Z,1176.17
2018-03-07T10:07:23.288Z,707.23
2018-03-07T10:09:28.597Z,529.37
2018-03-07T10:11:33.895Z,483.83
2018-03-07T10:13:40.056Z,456.33
2018-03-07T10:15:45.909Z,439.77
2018-03-07T10:17:51.335Z,416.33
2018-03-07T10:19:57.290Z,575.37
2018-03-07T10:22:05.903Z,456.43
2018-03-07T10:24:11.696Z,467.70
2018-03-07T10:26:17.288Z,539.30
2018-03-07T10:28:23.254Z,466.67
2018-03-07T10:30:29.168Z,456.70
2018-03-07T10:32:35.132Z,441.83
2018-03-07T10:34:41.001Z,437.50
2018-03-07T10:36:46.286Z,412.73
2018-03-07T10:38:51.973Z,390.47
2018-03-07T10:40:58.257Z,367.27
2018-03-07T10:43:04.785Z,468.63
2018-03-07T10:45:12.180Z,415.17
2018-03-07T10:47:17.703Z,1136.63
2018-03-07T10:49:27.252Z,476.20
2018-03-07T10:51:32.916Z,437.20
2018-03-07T10:53:39.627Z,427.10
2018-03-07T10:55:45.085Z,397.40
2018-03-07T10:57:50.683Z,375.13
2018-03-07T10:59:56.051Z,346.90
2018-03-07T11:02:04.592Z,316.93
2018-03-07T11:04:10.305Z,301.33
2018-03-07T11:06:16.640Z,302.10
2018-03-07T11:08:21.960Z,486.53
2018-03-07T11:10:27.606Z,436.43
2018-03-07T11:12:33.359Z,418.90
2018-03-07T11:14:39.100Z,453.50
2018-03-07T11:16:44.817Z,442.60
2018-03-07T11:18:50.244Z,430.20
2018-03-07T11:20:55.660Z,412.50
2018-03-07T11:23:03.092Z,386.63
2018-03-07T11:25:09.007Z,363.77
2018-03-07T11:27:14.344Z,342.63
2018-03-07T11:29:20.101Z,325.47
2018-03-07T11:31:29.119Z,1999.90
2018-03-07T11:33:34.416Z,1999.90
2018-03-07T11:35:40.070Z,678.77
2018-03-07T11:37:45.311Z,1999.90
2018-03-07T11:39:50.734Z,1999.90
2018-03-07T11:41:56.408Z,1999.90
2018-03-07T11:44:03.389Z,1355.00
2018-03-07T11:46:08.632Z,1050.77
2018-03-07T11:48:14.883Z,1382.90
2018-03-07T11:50:20.401Z,979.63
2018-03-07T11:52:26.280Z,643.27
2018-03-07T11:54:32.669Z,489.23
2018-03-07T11:56:38.103Z,634.13
2018-03-07T11:58:43.831Z,490.40
2018-03-07T12:00:49.468Z,294.43
2018-03-07T12:02:54.792Z,225.83
2018-03-07T12:05:01.125Z,1999.90
2018-03-07T12:07:07.419Z,714.70
2018-03-07T12:09:12.979Z,355.43
2018-03-07T12:11:18.510Z,213.93
2018-03-07T12:13:24.384Z,468.53
2018-03-07T12:15:29.705Z,1999.90
2018-03-07T12:17:35.042Z,548.67
2018-03-07T12:19:40.707Z,623.77
2018-03-07T12:21:46.057Z,577.87
2018-03-07T12:23:51.886Z,1323.13
2018-03-07T12:25:58.763Z,353.00
2018-03-07T12:28:06.243Z,648.27
2018-03-07T12:30:11.564Z,1944.17
2018-03-07T12:32:17.224Z,1999.90
2018-03-07T12:34:22.832Z,1776.43
2018-03-07T12:36:28.692Z,1999.90
2018-03-07T12:38:34.485Z,511.50
2018-03-07T12:40:39.728Z,1764.33
2018-03-07T12:42:52.816Z,1999.90
2018-03-07T12:45:06.364Z,540.30
2018-03-07T12:47:18.977Z,329.80
2018-03-07T12:49:31.551Z,412.30
2018-03-07T12:51:45.230Z,386.10
2018-03-07T12:53:57.928Z,374.67
2018-03-07T12:56:11.706Z,370.13
2018-03-07T12:58:24.604Z,321.30
2018-03-07T13:00:37.392Z,302.47
2018-03-07T13:02:50.240Z,265.03
2018-03-07T13:05:18.887Z,250.30
2018-03-07T13:07:51.817Z,235.83
2018-03-07T13:10:21.752Z,210.00
2018-03-07T13:12:53.681Z,196.33
2018-03-07T13:15:23.424Z,178.50
2018-03-07T13:17:53.089Z,172.53
2018-03-07T13:20:24.850Z,406.97
2018-03-07T13:22:53.704Z,529.97
2018-03-07T13:25:22.532Z,451.73
2018-03-07T13:27:50.588Z,959.17
2018-03-07T13:30:18.680Z,921.40
2018-03-07T13:32:47.685Z,1112.50
2018-03-07T13:35:17.384Z,831.40
2018-03-07T13:37:46.226Z,1536.97
2018-03-07T13:40:14.942Z,1944.10
2018-03-07T13:42:44.976Z,1999.90
2018-03-07T13:45:13.591Z,939.40
2018-03-07T13:47:42.452Z,759.87
2018-03-07T13:50:14.348Z,603.27
2018-03-07T13:52:44.133Z,1237.77
2018-03-07T13:55:15.110Z,909.37
2018-03-07T13:57:21.372Z,452.00
2018-03-07T13:59:30.334Z,358.13
2018-03-07T14:01:36.316Z,299.17
2018-03-07T14:03:41.904Z,182.17
2018-03-07T14:05:48.465Z,192.60
2018-03-07T14:07:54.163Z,162.27
2018-03-07T14:09:59.723Z,344.60
2018-03-07T14:12:07.928Z,574.90
2018-03-07T14:14:14.470Z,1344.13
2018-03-07T14:16:20.437Z,818.17
2018-03-07T14:18:26.956Z,1344.63
2018-03-07T14:20:35.364Z,1043.67
2018-03-07T14:22:40.805Z,546.53
2018-03-07T14:24:46.566Z,865.97
2018-03-07T14:26:51.855Z,471.80
2018-03-07T14:28:57.104Z,239.77
2018-03-07T14:31:05.707Z,126.10
2018-03-07T14:33:11.072Z,76.60
2018-03-07T14:35:16.555Z,64.27
2018-03-07T14:37:22.386Z,60.50
2018-03-07T14:39:27.711Z,179.27
2018-03-07T14:41:33.870Z,59.57
2018-03-07T14:43:39.500Z,52.20
2018-03-07T14:45:45.917Z,74.97
2018-03-07T14:47:51.296Z,156.10
2018-03-07T14:49:56.911Z,137.90
2018-03-07T14:52:04.548Z,266.57
2018-03-07T14:54:09.822Z,547.70
2018-03-07T14:56:19.674Z,163.87
2018-03-07T14:58:26.205Z,439.20
2018-03-07T15:00:31.620Z,419.53
2018-03-07T15:02:37.263Z,132.80
2018-03-07T15:04:43.404Z,40.10
2018-03-07T15:06:48.751Z,528.30
2018-03-07T15:08:54.329Z,474.90
2018-03-07T15:10:59.742Z,507.27
2018-03-07T15:13:07.269Z,244.07
2018-03-07T15:15:12.929Z,154.77
2018-03-07T15:17:18.343Z,150.80
2018-03-07T15:19:23.780Z,135.57
2018-03-07T15:21:30.684Z,123.27
2018-03-07T15:23:36.032Z,77.43
2018-03-07T15:25:41.360Z,65.93
2018-03-07T15:27:47.476Z,56.87
2018-03-07T15:29:52.986Z,61.93
2018-03-07T15:32:02.369Z,49.40
2018-03-07T15:34:08.030Z,35.30
2018-03-07T15:36:13.333Z,39.90
2018-03-07T15:38:19.166Z,201.63
2018-03-07T15:40:24.786Z,495.23
2018-03-07T15:42:30.738Z,767.67
2018-03-07T15:44:36.084Z,277.60
2018-03-07T15:46:42.288Z,195.50
2018-03-07T15:48:52.452Z,118.27
2018-03-07T15:50:58.344Z,90.83
2018-03-07T15:53:06.518Z,99.50
2018-03-07T15:55:11.846Z,64.30
2018-03-07T15:57:18.212Z,61.40
2018-03-07T15:59:23.907Z,54.93
2018-03-07T16:01:29.338Z,44.57
2018-03-07T16:03:35.192Z,37.03
2018-03-07T16:05:40.911Z,31.87
2018-03-07T16:07:46.296Z,30.17
2018-03-07T16:09:51.677Z,264.90
2018-03-07T16:11:57.340Z,409.40
2018-03-07T16:14:04.756Z,518.43
2018-03-07T16:16:10.204Z,658.50
2018-03-07T16:18:15.892Z,138.93
2018-03-07T16:20:21.348Z,133.57
2018-03-07T16:22:27.742Z,179.30
2018-03-07T16:24:33.473Z,138.13
2018-03-07T16:26:39.500Z,81.37
2018-03-07T16:28:44.856Z,85.67
2018-03-07T16:30:50.597Z,67.00
2018-03-07T16:32:58.789Z,50.60
2018-03-07T16:35:06.835Z,58.33
2018-03-07T16:37:12.426Z,56.97
2018-03-07T16:39:17.760Z,45.30
2018-03-07T16:41:23.173Z,47.90
2018-03-07T16:43:28.888Z,35.70
2018-03-07T16:45:36.292Z,37.17
2018-03-07T16:47:42.434Z,25.20
2018-03-07T16:49:47.995Z,19.50
2018-03-07T16:51:53.370Z,23.90
2018-03-07T16:53:58.691Z,23.73
2018-03-07T16:56:07.473Z,25.97
2018-03-07T16:58:13.356Z,17.50
2018-03-07T17:00:19.851Z,14.50
2018-03-07T17:02:25.423Z,17.27
2018-03-07T17:04:30.776Z,12.73
2018-03-07T17:06:36.615Z,13.00
2018-03-07T17:08:46.980Z,16.43
2018-03-07T17:10:53.052Z,12.23
2018-03-07T17:13:03.401Z,13.13
2018-03-07T17:15:09.249Z,16.10
2018-03-07T17:17:14.802Z,14.87
2018-03-07T17:19:20.187Z,9.83
2018-03-07T17:21:26.531Z,7.53
2018-03-07T17:23:31.888Z,7.73
2018-03-07T17:25:37.704Z,7.90
2018-03-07T17:27:44.149Z,7.30
2018-03-07T17:29:49.446Z,6.60
2018-03-07T17:31:54.793Z,7.13
2018-03-07T17:34:01.460Z,5.97
2018-03-07T17:36:06.983Z,6.70
2018-03-07T17:38:12.318Z,5.47
2018-03-07T17:40:18.093Z,6.30
2018-03-07T17:42:23.336Z,7.00
2018-03-07T17:44:28.633Z,5.53
2018-03-07T17:46:34.301Z,4.97
2018-03-07T17:48:39.618Z,5.43
2018-03-07T17:50:44.968Z,4.77
2018-03-07T17:52:50.609Z,5.13
2018-03-07T17:54:55.976Z,4.77
2018-03-07T17:57:02.066Z,5.60
2018-03-07T17:59:07.670Z,4.50
2018-03-07T18:01:13.000Z,3.80
2018-03-07T18:03:18.367Z,4.33
2018-03-07T18:05:24.016Z,5.03
2018-03-07T18:07:29.389Z,4.40
2018-03-07T18:09:34.757Z,3.60
2018-03-07T18:11:40.656Z,4.60
2018-03-07T18:13:52.256Z,3.80
2018-03-07T18:15:58.937Z,3.77
2018-03-07T18:18:10.239Z,3.77
2018-03-07T18:20:15.663Z,3.37
2018-03-07T18:22:21.758Z,4.50
2018-03-07T18:24:27.354Z,3.10
2018-03-07T18:26:33.821Z,4.70
2018-03-07T18:28:39.185Z,4.70
2018-03-07T18:30:44.820Z,4.17
2018-03-07T18:32:51.297Z,4.27
2018-03-07T18:34:56.678Z,3.60
2018-03-07T18:39:39.836Z,4.23
2018-03-07T18:44:15.546Z,4.57
2018-03-07T18:46:24.202Z,3.77
2018-03-07T18:48:34.307Z,3.90
2018-03-07T18:50:50.792Z,3.50
2018-03-07T18:52:57.322Z,4.00
2018-03-07T18:55:04.993Z,4.23
2018-03-07T18:57:10.916Z,3.57
2018-03-07T18:59:18.219Z,3.50
2018-03-07T19:01:23.546Z,3.33
2018-03-07T19:03:30.157Z,4.93
2018-03-07T19:05:35.656Z,3.50
2018-03-07T19:07:40.973Z,3.33
2018-03-07T19:09:48.752Z,3.77
2018-03-07T19:11:54.212Z,3.47
2018-03-07T19:13:59.471Z,3.53
2018-03-07T19:16:05.246Z,3.40
2018-03-07T19:18:10.487Z,5.00
2018-03-07T19:20:16.846Z,3.50
2018-03-07T19:22:27.155Z,3.47
2018-03-07T19:24:32.888Z,2.77
2018-03-07T19:26:40.328Z,3.60
2018-03-07T19:28:45.900Z,2.93
2018-03-07T19:30:51.343Z,3.50
2018-03-07T19:32:56.664Z,2.50
2018-03-07T19:35:02.443Z,3.60
2018-03-07T19:37:07.949Z,3.43
2018-03-07T19:39:14.277Z,3.40
2018-03-07T19:41:22.684Z,3.50
2018-03-07T19:43:31.648Z,3.67
2018-03-07T19:45:37.140Z,3.50
2018-03-07T19:47:42.787Z,3.10
2018-03-07T19:49:48.980Z,3.70
2018-03-07T19:51:54.392Z,3.40
2018-03-07T19:54:01.200Z,3.23
2018-03-07T19:56:07.340Z,3.67
2018-03-07T19:58:12.696Z,4.00
2018-03-07T20:00:18.451Z,3.43
2018-03-07T20:02:23.909Z,3.63
2018-03-07T20:04:31.174Z,3.10
2018-03-07T20:06:36.978Z,3.97
2018-03-07T20:08:42.340Z,3.20
2018-03-07T20:10:47.710Z,3.20
2018-03-07T20:12:59.465Z,3.40
2018-03-07T20:15:08.878Z,4.00
2018-03-07T20:17:14.742Z,4.43
2018-03-07T20:19:26.580Z,4.27
2018-03-07T20:21:33.039Z,4.57
2018-03-07T20:23:38.951Z,4.40
2018-03-07T20:25:46.643Z,4.73
2018-03-07T20:27:58.187Z,4.10
2018-03-07T20:30:04.037Z,5.10
2018-03-07T20:32:09.659Z,4.70
2018-03-07T20:37:15.277Z,4.00
2018-03-07T20:39:21.381Z,5.00
2018-03-07T20:41:27.682Z,5.00
2018-03-07T20:43:34.996Z,5.50
2018-03-07T20:45:41.664Z,4.33
2018-03-07T20:47:47.043Z,5.70
2018-03-07T20:49:53.433Z,4.10
2018-03-07T20:51:59.668Z,5.63
2018-03-07T20:54:05.105Z,5.77
2018-03-07T20:56:10.478Z,6.10
2018-03-07T20:58:16.468Z,5.23
2018-03-07T21:00:36.034Z,4.77
2018-03-07T21:04:51.848Z,5.17
2018-03-07T21:06:58.648Z,4.90
2018-03-07T21:09:05.379Z,6.10
2018-03-07T21:11:11.129Z,5.80
2018-03-07T21:13:16.709Z,6.70
2018-03-07T21:15:24.632Z,6.63
2018-03-07T21:17:31.798Z,5.77
2018-03-07T21:19:37.496Z,6.50
2018-03-07T21:21:42.994Z,5.60
2018-03-07T21:23:50.145Z,7.30
2018-03-07T21:25:56.440Z,7.13
2018-03-07T21:28:03.667Z,6.47
2018-03-07T21:30:09.276Z,8.00
2018-03-07T21:32:17.758Z,7.10
2018-03-07T21:34:23.870Z,7.17
2018-03-07T21:36:29.853Z,7.03
2018-03-07T21:38:37.330Z,7.00
2018-03-07T21:40:42.844Z,6.57
2018-03-07T21:42:48.656Z,6.90
2018-03-07T21:44:55.920Z,6.83
2018-03-07T21:47:03.589Z,6.57
2018-03-07T21:49:09.299Z,6.50
2018-03-07T21:51:14.701Z,6.67
2018-03-07T21:53:20.205Z,7.07
2018-03-07T21:55:27.025Z,6.10
2018-03-07T21:57:33.252Z,7.50
2018-03-07T21:59:39.303Z,6.60
2018-03-07T22:01:44.964Z,7.33
2018-03-07T22:03:50.704Z,7.07
2018-03-07T22:05:56.178Z,7.63
2018-03-07T22:08:01.916Z,8.07
2018-03-07T22:10:07.894Z,6.50
2018-03-07T22:12:13.748Z,6.97
2018-03-07T22:14:19.737Z,6.53
2018-03-07T22:16:25.139Z,171.27
2018-03-07T22:18:30.615Z,579.33
2018-03-07T22:20:36.251Z,867.47
2018-03-07T22:22:41.727Z,448.87
2018-03-07T22:24:47.446Z,326.73
2018-03-07T22:26:53.343Z,271.60
2018-03-07T22:28:58.662Z,242.77
2018-03-07T22:31:06.032Z,159.67
2018-03-07T22:33:11.568Z,167.40
2018-03-07T22:35:16.980Z,252.53
2018-03-07T22:37:22.312Z,449.63
2018-03-07T22:39:28.460Z,535.43
2018-03-07T22:41:34.861Z,353.63
2018-03-07T22:43:40.504Z,636.93
2018-03-07T22:45:46.700Z,411.93
2018-03-07T22:47:53.942Z,845.40
2018-03-07T22:50:06.683Z,606.40
2018-03-07T22:52:12.799Z,598.97
2018-03-07T22:54:18.135Z,739.70
2018-03-07T22:56:23.492Z,779.47
2018-03-07T22:58:29.926Z,683.43
2018-03-07T23:00:40.325Z,773.07
2018-03-07T23:02:45.658Z,986.57
2018-03-07T23:04:51.202Z,938.67
2018-03-07T23:06:56.568Z,920.30
2018-03-07T23:09:04.012Z,785.67
2018-03-07T23:11:10.258Z,976.47
2018-03-07T23:13:16.088Z,1059.97
2018-03-07T23:15:22.095Z,637.00
2018-03-07T23:17:28.262Z,694.00
2018-03-07T23:19:35.078Z,467.80
2018-03-07T23:21:40.493Z,431.83
2018-03-07T23:23:46.109Z,475.23
2018-03-07T23:25:52.640Z,643.20
2018-03-07T23:27:59.879Z,606.17
2018-03-07T23:30:08.032Z,612.90
2018-03-07T23:32:13.910Z,545.70
2018-03-07T23:34:19.604Z,228.97
2018-03-07T23:36:25.764Z,47.67
2018-03-07T23:38:32.124Z,40.70
2018-03-07T23:40:39.800Z,17.87
2018-03-07T23:42:46.574Z,18.37
2018-03-07T23:44:52.505Z,16.40
2018-03-07T23:46:58.357Z,10.83
2018-03-07T23:49:05.852Z,18.00
2018-03-07T23:51:11.510Z,10.50
2018-03-07T23:53:17.371Z,9.13
2018-03-07T23:55:23.038Z,11.63
2018-03-07T23:57:28.356Z,9.20
2018-03-07T23:59:34.016Z,10.63
